• Join FlightAware (Why Join?)
  • Login
  • US Flag 
01:01PM EDT


 

Airport Tracker/Info


-or-


 

Live Flight TrackerFlight Track Log ✈ FLG4081 ✈ 22-Apr-2013 ✈ KDTW - KAZO

Flight Track Log - Related Links

Times and Time Zones

All times are in EDT time to prevent confusion due to time zone crossing. See the FLG4081 flight status page for this flight to view local times or setup timezone preferences in your user account.

Time Position Orientation Groundspeed Altitude Reporting Facility
EDT Latitude Longitude Course Direction KTS MPH feet Rate Location/Type
09:59PM 42.2031 -83.3550 276° West 167 192 1,600  Level FAA TRACON SMA TRACON (SMA)
10:00PM 42.1900 -83.3683 217° Southwest 187 215 2,600 2,880 Climbing FAA TRACON SMA TRACON (SMA)
10:00PM 42.1744 -83.3864 221° Southwest 200 230 3,600 3,360 Climbing FAA TRACON SMA TRACON (SMA)
10:00PM 42.1617 -83.3997 218° Southwest 192 221 4,800 2,460 Climbing FAA TRACON SMA TRACON (SMA)
10:01PM 42.0919 -83.4653 215° Southwest 267 307 7,700 2,700 Climbing FAA TRACON SMA TRACON (SMA)
10:02PM 42.2199 -83.6951 276° West  Level FlightAware Approximate
10:02PM 42.0522 -83.5000 213° Southwest 275 316 10,000  Level Cleveland Center
10:03PM 42.2282 -83.8107 276° West  Level FlightAware Approximate
10:03PM 42.0308 -83.5186 213° Southwest 284 327 10,900  Level Cleveland Center
10:03PM 42.0122 -83.5931 251° West 329 379 12,000 1,080 Climbing Cleveland Center
10:04PM 42.2360 -83.9205 276° West  Level FlightAware Approximate
10:04PM 42.0317 -83.6472 296° West 354 407 12,000  Level Cleveland Center
10:05PM 42.0806 -83.7586 301° West 377 434 12,000  Level Cleveland Center
10:06PM 42.1219 -83.8531 301° West 382 440 12,000  Level Cleveland Center
10:07PM 42.1764 -83.9875 299° West 382 440 12,100  Climbing Cleveland Center
10:08PM 42.2289 -84.1111 300° West 382 440 12,100 -600 Level Cleveland Center
10:09PM 42.2644 -84.2394 291° West 382 440 11,000 -600 Descending Cleveland Center
10:10PM 42.2600 -84.3739 267° West 360 414 11,000  Level Cleveland Center
10:11PM 42.2558 -84.5025 268° West 360 414 11,000  Level Cleveland Center
10:12PM 42.2542 -84.7633 270° West 337 388 11,000  Level Chicago Center
10:14PM 42.2517 -84.8892 269° West 336 387 11,000 -240 Level Chicago Center
10:15PM 42.2494 -85.0117 269° West 332 382 10,600 -900 Descending Chicago Center
10:16PM 42.2472 -85.1056 268° West 286 329 9,200 -1,740 Descending Chicago Center
10:17PM 42.2431 -85.2044 267° West 268 308 7,100 -2,100 Descending Chicago Center
10:18PM 42.2108 -85.3097 248° West 261 300 5,000 -1,560 Descending Chicago Center
10:19PM 42.1942 -85.3900 254° West 238 274 4,000 -960 Descending Chicago Center
10:20PM 42.1597 -85.4383 226° Southwest 204 235 3,100 -720 Descending Chicago Center
10:21PM 42.1403 -85.4889 243° Southwest 209 241 2,600 -540 Descending Chicago Center